Time;durP1;ratioP1;P1;durP2;ratioP2;P2;SDS_P1;SDS_P2;PMS_P1;PMS_P2;Temp;Humidity;BMP_temperature;BMP_pressure;BME280_temperature;BME280_humidity;BME280_pressure;Samples;Min_cycle;Max_cycle;Signal;HPM_P1;HPM_P2
2021/03/05 00:01:34;;;;;;;26.10;16.83;;;1.10;91.20;;;;;;5046761;28;20052;-44
2021/03/05 00:04:00;;;;;;;29.60;17.65;;;1.10;91.30;;;;;;5047254;28;20063;-45
2021/03/05 00:06:28;;;;;;;30.33;18.27;;;1.10;91.20;;;;;;5047271;28;20110;-44
2021/03/05 00:08:58;;;;;;;29.80;17.98;;;1.10;91.10;;;;;;5046585;28;20160;-45
2021/03/05 00:11:27;;;;;;;25.10;17.60;;;1.10;91.60;;;;;;5047928;28;20080;-45
2021/03/05 00:13:52;;;;;;;26.55;17.88;;;1.10;91.40;;;;;;5047402;28;20755;-44
2021/03/05 00:16:21;;;;;;;27.80;16.60;;;1.00;91.40;;;;;;5046590;28;20048;-46
2021/03/05 00:18:50;;;;;;;28.70;17.13;;;1.00;91.30;;;;;;5046303;28;20611;-45
2021/03/05 00:21:17;;;;;;;30.38;16.90;;;1.00;91.60;;;;;;5047097;28;20048;-47
2021/03/05 00:23:43;;;;;;;25.33;16.58;;;1.00;91.40;;;;;;5046862;28;20055;-45
2021/03/05 00:26:09;;;;;;;29.52;17.95;;;1.00;91.50;;;;;;5046822;28;20053;-45
2021/03/05 00:28:35;;;;;;;26.67;16.63;;;1.00;91.70;;;;;;5047143;28;20076;-45
2021/03/05 00:31:01;;;;;;;28.92;18.35;;;0.90;91.60;;;;;;5046896;28;20057;-47
2021/03/05 00:33:29;;;;;;;29.33;16.75;;;0.90;91.70;;;;;;5049480;28;20044;-45
2021/03/05 00:35:57;;;;;;;27.08;16.63;;;0.90;91.40;;;;;;5046520;28;20060;-48
2021/03/05 00:38:24;;;;;;;26.50;17.02;;;0.90;91.50;;;;;;5045379;28;20493;-47
2021/03/05 00:40:50;;;;;;;26.70;17.08;;;0.80;91.40;;;;;;5054807;28;20076;-46
2021/03/05 00:43:24;;;;;;;34.38;17.20;;;0.80;91.40;;;;;;5046265;28;20048;-44
2021/03/05 00:45:50;;;;;;;27.88;17.73;;;0.80;91.40;;;;;;5046942;28;20053;-45
2021/03/05 00:48:21;;;;;;;32.78;17.30;;;0.80;91.60;;;;;;5045199;28;20112;-48
2021/03/05 00:50:47;;;;;;;24.77;15.95;;;0.70;91.40;;;;;;5046973;28;20123;-46
2021/03/05 00:53:13;;;;;;;31.42;17.00;;;0.70;91.50;;;;;;5046567;28;20053;-47
2021/03/05 00:55:40;;;;;;;30.83;16.80;;;0.70;91.70;;;;;;5045289;28;20068;-48
2021/03/05 00:58:05;;;;;;;26.98;16.10;;;0.70;91.80;;;;;;5045914;28;20057;-48
2021/03/05 01:00:34;;;;;;;31.13;16.83;;;0.60;91.60;;;;;;5047019;28;20500;-48
2021/03/05 01:03:00;;;;;;;32.15;18.95;;;0.60;91.70;;;;;;5046123;28;20127;-48
2021/03/05 01:05:26;;;;;;;29.42;16.67;;;0.60;91.80;;;;;;5044403;28;20179;-45
2021/03/05 01:07:57;;;;;;;26.50;14.85;;;0.60;92.00;;;;;;5043676;28;20056;-46
2021/03/05 01:10:23;;;;;;;24.35;15.38;;;0.60;91.90;;;;;;5045616;28;20253;-44
2021/03/05 01:12:49;;;;;;;26.60;15.20;;;0.60;91.80;;;;;;5043754;28;20068;-45
2021/03/05 01:15:17;;;;;;;29.25;15.70;;;0.60;91.70;;;;;;5046810;28;20052;-45
2021/03/05 01:17:43;;;;;;;26.13;14.93;;;0.50;91.80;;;;;;5046955;28;20049;-47
2021/03/05 01:20:13;;;;;;;22.85;13.95;;;0.50;91.60;;;;;;5045165;28;20057;-45
2021/03/05 01:22:39;;;;;;;20.48;13.52;;;0.50;91.40;;;;;;5045932;28;20048;-47
2021/03/05 01:25:08;;;;;;;20.55;12.93;;;0.40;91.50;;;;;;5046882;28;20052;-47
2021/03/05 01:27:35;;;;;;;27.60;14.13;;;0.40;91.30;;;;;;5046040;28;20140;-46
2021/03/05 01:30:03;;;;;;;23.27;13.70;;;0.40;91.30;;;;;;5045822;28;20080;-45
2021/03/05 01:32:29;;;;;;;23.42;14.82;;;0.30;91.30;;;;;;5045846;28;20144;-45
2021/03/05 01:34:55;;;;;;;25.60;14.73;;;0.30;91.40;;;;;;5045455;28;20127;-47
2021/03/05 01:37:24;;;;;;;24.83;14.57;;;0.30;91.30;;;;;;5044954;28;20499;-45
2021/03/05 01:39:49;;;;;;;26.23;15.10;;;0.20;91.30;;;;;;5045015;28;20056;-45
2021/03/05 01:42:18;;;;;;;24.60;14.50;;;0.10;91.20;;;;;;5045873;28;20049;-47
2021/03/05 01:44:44;;;;;;;24.02;14.10;;;0.20;91.40;;;;;;5045239;28;20049;-46
2021/03/05 01:47:12;;;;;;;25.73;15.93;;;0.20;91.90;;;;;;5045107;28;20064;-45
2021/03/05 01:49:38;;;;;;;30.08;14.82;;;0.20;91.80;;;;;;5047046;28;20037;-45
2021/03/05 01:52:06;;;;;;;23.42;14.65;;;0.20;91.80;;;;;;5044457;28;20564;-45
2021/03/05 01:54:32;;;;;;;24.48;15.63;;;0.10;91.50;;;;;;5046206;28;20143;-48
2021/03/05 01:56:58;;;;;;;26.40;13.20;;;0.10;91.40;;;;;;5045109;28;20103;-44
2021/03/05 01:59:31;;;;;;;24.17;14.35;;;0.10;91.40;;;;;;5045001;28;20152;-47
2021/03/05 02:02:26;;;;;;;28.23;16.13;;;0.10;91.40;;;;;;5044932;28;20503;-47
2021/03/05 02:04:52;;;;;;;25.80;15.55;;;0.10;91.60;;;;;;5042838;28;20048;-47
2021/03/05 02:07:22;;;;;;;23.83;15.05;;;0.00;91.40;;;;;;5045776;28;20472;-43
2021/03/05 02:09:51;;;;;;;23.38;14.23;;;0.00;91.80;;;;;;5045471;28;20056;-47
2021/03/05 02:12:17;;;;;;;25.95;13.90;;;-0.10;91.40;;;;;;5044852;28;20041;-45
2021/03/05 02:14:48;;;;;;;23.23;14.07;;;-0.10;91.50;;;;;;5045170;28;20134;-46
2021/03/05 02:17:33;;;;;;;21.73;13.27;;;0.00;91.80;;;;;;5045456;28;20057;-47
2021/03/05 02:20:16;;;;;;;19.27;12.75;;;-0.10;91.60;;;;;;5035927;28;20045;-45
2021/03/05 02:23:12;;;;;;;23.88;13.57;;;0.00;91.60;;;;;;5044390;28;20049;-46
2021/03/05 02:25:53;;;;;;;23.58;14.25;;;-0.10;91.50;;;;;;5045229;28;20049;-47
2021/03/05 02:28:49;;;;;;;24.17;13.25;;;0.00;91.60;;;;;;5045376;28;20084;-46
2021/03/05 02:31:29;;;;;;;31.60;15.18;;;0.00;91.50;;;;;;5046126;28;20057;-45
2021/03/05 02:34:06;;;;;;;25.55;13.25;;;0.00;91.70;;;;;;5044449;28;20049;-45
2021/03/05 02:36:44;;;;;;;24.30;13.07;;;0.10;91.80;;;;;;5042738;28;20059;-46
2021/03/05 02:39:15;;;;;;;21.42;13.15;;;0.10;91.50;;;;;;5037815;28;20160;-43
2021/03/05 02:41:42;;;;;;;20.02;12.50;;;0.10;91.50;;;;;;5044390;28;20423;-43
2021/03/05 02:44:25;;;;;;;21.05;12.25;;;0.20;91.50;;;;;;5045290;28;20052;-45
2021/03/05 02:46:57;;;;;;;21.75;12.98;;;0.20;91.40;;;;;;5038974;28;20080;-46
2021/03/05 02:49:33;;;;;;;22.67;12.07;;;0.20;91.40;;;;;;5043125;28;20496;-46
2021/03/05 02:52:06;;;;;;;22.48;12.02;;;0.20;91.50;;;;;;5032480;28;20156;-46
2021/03/05 02:54:37;;;;;;;18.90;11.68;;;0.20;91.30;;;;;;5044151;28;20568;-47
2021/03/05 02:57:06;;;;;;;19.55;10.02;;;0.20;91.50;;;;;;5044615;28;20045;-44
2021/03/05 02:59:36;;;;;;;18.73;11.55;;;0.20;91.30;;;;;;5044032;28;20041;-44
2021/03/05 03:02:07;;;;;;;17.15;10.35;;;0.20;91.20;;;;;;5051578;28;20051;-45
2021/03/05 03:04:34;;;;;;;16.38;10.13;;;0.20;91.10;;;;;;5044085;28;20103;-46
2021/03/05 03:07:04;;;;;;;15.55;9.68;;;0.20;91.00;;;;;;5027868;28;20489;-44
2021/03/05 03:09:34;;;;;;;18.02;9.82;;;0.10;90.90;;;;;;5043471;28;20044;-45
2021/03/05 03:12:00;;;;;;;17.80;9.57;;;0.10;90.80;;;;;;5042451;28;20091;-48
2021/03/05 03:14:27;;;;;;;16.25;9.15;;;0.10;90.70;;;;;;5044496;28;20427;-45
2021/03/05 03:16:56;;;;;;;18.70;9.15;;;0.00;90.70;;;;;;5044338;28;20068;-48
2021/03/05 03:19:25;;;;;;;19.38;9.13;;;-0.10;90.50;;;;;;5043478;28;20175;-46
2021/03/05 03:21:51;;;;;;;17.33;10.25;;;-0.20;90.60;;;;;;5042195;28;20513;-44
2021/03/05 03:24:17;;;;;;;20.75;9.88;;;-0.20;90.70;;;;;;5042059;28;20476;-49
2021/03/05 03:26:45;;;;;;;17.38;9.82;;;-0.20;90.90;;;;;;5045013;28;20049;-45
2021/03/05 03:29:11;;;;;;;11.20;8.00;;;-0.20;90.90;;;;;;5043704;28;20060;-45
2021/03/05 03:31:40;;;;;;;15.63;9.50;;;-0.30;91.00;;;;;;5043731;28;20053;-45
2021/03/05 03:34:08;;;;;;;17.20;9.15;;;-0.40;90.70;;;;;;5048048;28;20068;-47
2021/03/05 03:36:40;;;;;;;16.30;9.15;;;-0.40;90.70;;;;;;5043959;28;20057;-47
2021/03/05 03:39:11;;;;;;;14.77;8.35;;;-0.50;90.80;;;;;;5047881;28;20045;-50
2021/03/05 03:41:40;;;;;;;14.75;8.30;;;-0.50;90.80;;;;;;5046679;28;20459;-50
2021/03/05 03:44:08;;;;;;;18.48;9.85;;;-0.50;91.00;;;;;;5047629;28;20057;-47
2021/03/05 03:46:42;;;;;;;15.68;9.32;;;-0.50;90.90;;;;;;5046206;28;20118;-46
2021/03/05 03:49:15;;;;;;;14.80;9.38;;;-0.50;90.90;;;;;;5047327;28;20118;-45
2021/03/05 03:51:46;;;;;;;15.07;8.70;;;-0.60;90.90;;;;;;5046805;28;20049;-45
2021/03/05 03:54:15;;;;;;;17.67;9.55;;;-0.60;90.80;;;;;;5047792;28;20049;-48
2021/03/05 03:56:42;;;;;;;14.65;10.02;;;-0.60;90.80;;;;;;5046738;28;20479;-46
2021/03/05 03:59:13;;;;;;;17.20;9.38;;;-0.60;91.00;;;;;;5047711;28;20053;-45
2021/03/05 04:01:45;;;;;;;12.90;8.75;;;-0.60;91.00;;;;;;5046207;28;20485;-48
2021/03/05 04:04:13;;;;;;;18.05;9.38;;;-0.60;90.90;;;;;;5047506;28;20045;-48
2021/03/05 04:06:45;;;;;;;19.42;10.70;;;-0.70;90.90;;;;;;5046242;28;20412;-48
2021/03/05 04:09:15;;;;;;;14.88;8.65;;;-0.70;90.90;;;;;;5046253;28;20190;-45
2021/03/05 04:11:44;;;;;;;21.88;9.73;;;-0.70;90.90;;;;;;5046627;28;20462;-45
2021/03/05 04:14:13;;;;;;;15.43;8.77;;;-0.70;90.80;;;;;;5046543;28;20049;-46
2021/03/05 04:16:39;;;;;;;13.88;8.55;;;-0.70;90.90;;;;;;5047035;28;20049;-47
2021/03/05 04:19:10;;;;;;;20.90;9.40;;;-0.70;90.90;;;;;;5046560;28;20052;-47
2021/03/05 04:21:39;;;;;;;14.73;8.90;;;-0.70;91.00;;;;;;5045938;28;20114;-48
2021/03/05 04:24:08;;;;;;;17.25;7.72;;;-0.70;91.00;;;;;;5046494;28;20049;-47
2021/03/05 04:26:36;;;;;;;20.15;8.90;;;-0.60;91.10;;;;;;5045307;28;20175;-45
2021/03/05 04:29:02;;;;;;;18.10;7.60;;;-0.60;91.10;;;;;;5046079;28;20939;-45
2021/03/05 04:31:28;;;;;;;17.65;7.95;;;-0.70;90.90;;;;;;5050336;28;20045;-45
2021/03/05 04:33:54;;;;;;;14.68;7.80;;;-0.70;90.90;;;;;;5046554;28;20064;-48
2021/03/05 04:36:22;;;;;;;15.80;7.18;;;-0.70;91.30;;;;;;5045209;28;20468;-47
2021/03/05 04:38:49;;;;;;;14.32;7.60;;;-0.70;91.10;;;;;;5045384;28;20052;-44
2021/03/05 04:41:15;;;;;;;14.65;7.40;;;-0.80;91.00;;;;;;5045337;28;20157;-43
2021/03/05 04:43:41;;;;;;;13.50;7.18;;;-0.80;91.00;;;;;;5046933;28;20045;-44
2021/03/05 04:46:07;;;;;;;14.13;6.68;;;-0.80;90.90;;;;;;5044725;28;20056;-45
2021/03/05 04:48:33;;;;;;;16.65;8.30;;;-0.80;90.90;;;;;;5045394;28;20045;-48
2021/03/05 04:51:04;;;;;;;22.02;7.57;;;-0.80;91.20;;;;;;5045222;28;20485;-43
2021/03/05 04:53:32;;;;;;;13.63;6.57;;;-0.80;91.10;;;;;;5046488;28;20502;-45
2021/03/05 04:55:59;;;;;;;13.93;6.57;;;-0.80;91.10;;;;;;5045417;28;20513;-47
2021/03/05 04:58:27;;;;;;;16.23;6.38;;;-0.90;91.10;;;;;;5047074;28;20048;-47
2021/03/05 05:00:58;;;;;;;12.32;5.93;;;-0.90;91.10;;;;;;5045252;28;20053;-44
2021/03/05 05:03:26;;;;;;;17.75;6.53;;;-0.90;90.90;;;;;;5045753;28;20057;-45
2021/03/05 05:05:56;;;;;;;12.77;5.88;;;-0.90;91.00;;;;;;5046220;28;20122;-45
2021/03/05 05:08:22;;;;;;;16.63;5.47;;;-0.90;91.00;;;;;;5046525;28;20064;-45
2021/03/05 05:10:54;;;;;;;11.85;5.65;;;-1.00;90.90;;;;;;5043305;28;20690;-46
2021/03/05 05:13:20;;;;;;;12.73;5.00;;;-1.00;90.80;;;;;;5039441;28;20080;-46
2021/03/05 05:15:48;;;;;;;13.45;4.93;;;-1.00;91.00;;;;;;5044038;28;20081;-46
2021/03/05 05:18:16;;;;;;;12.85;5.03;;;-1.10;90.80;;;;;;5045524;28;20053;-46
2021/03/05 05:20:42;;;;;;;13.05;5.55;;;-1.10;90.80;;;;;;5044798;28;20045;-45
2021/03/05 05:23:11;;;;;;;11.80;5.00;;;-1.10;90.80;;;;;;5044615;28;20118;-45
2021/03/05 05:25:39;;;;;;;8.93;4.80;;;-1.20;90.80;;;;;;5045511;28;20044;-46
2021/03/05 05:28:05;;;;;;;11.98;4.78;;;-1.20;90.70;;;;;;5045363;28;20122;-47
2021/03/05 05:30:31;;;;;;;11.90;4.70;;;-1.30;90.70;;;;;;5050531;28;20083;-48
2021/03/05 05:33:00;;;;;;;12.60;5.80;;;-1.20;91.10;;;;;;5043931;28;20052;-45
2021/03/05 05:35:31;;;;;;;12.68;4.65;;;-1.20;91.00;;;;;;5045281;28;20060;-48
2021/03/05 05:37:57;;;;;;;10.05;4.82;;;-1.20;90.90;;;;;;5044997;28;20052;-44
2021/03/05 05:40:24;;;;;;;10.82;3.90;;;-1.30;90.90;;;;;;5051784;28;20087;-46
2021/03/05 05:42:58;;;;;;;14.70;4.03;;;-1.30;90.90;;;;;;5044737;28;20045;-46
2021/03/05 05:45:24;;;;;;;11.15;4.32;;;-1.40;90.70;;;;;;5045612;28;20049;-46
2021/03/05 05:47:57;;;;;;;11.65;4.65;;;-1.40;90.50;;;;;;5048319;28;20107;-47
2021/03/05 05:50:24;;;;;;;10.63;3.65;;;-1.50;90.50;;;;;;5045427;28;20052;-48
2021/03/05 05:52:53;;;;;;;13.10;4.65;;;-1.50;91.10;;;;;;5044335;28;20140;-44
2021/03/05 05:55:25;;;;;;;7.05;3.05;;;-1.50;90.60;;;;;;5044849;28;20623;-44
2021/03/05 05:57:54;;;;;;;9.95;4.00;;;-1.50;90.60;;;;;;5044909;28;20745;-44
2021/03/05 06:00:20;;;;;;;12.63;4.03;;;-1.60;90.60;;;;;;5045107;28;20052;-47
2021/03/05 06:02:47;;;;;;;10.77;3.70;;;-1.60;90.60;;;;;;5043852;28;20102;-47
2021/03/05 06:05:17;;;;;;;8.88;3.05;;;-1.60;90.40;;;;;;5043898;28;20147;-46
2021/03/05 06:07:44;;;;;;;13.77;3.80;;;-1.70;90.50;;;;;;5044765;28;20182;-46
2021/03/05 06:10:13;;;;;;;8.90;3.85;;;-1.70;90.40;;;;;;5044854;28;20102;-46
2021/03/05 06:12:40;;;;;;;10.05;3.83;;;-1.80;90.40;;;;;;5043806;28;20496;-48
2021/03/05 06:15:08;;;;;;;9.40;3.63;;;-1.80;90.50;;;;;;5044228;28;20076;-45
2021/03/05 06:17:44;;;;;;;8.85;3.10;;;-1.80;90.50;;;;;;5044361;28;20064;-48
2021/03/05 06:20:14;;;;;;;10.90;3.60;;;-1.70;90.60;;;;;;5044989;28;20053;-47
2021/03/05 06:22:40;;;;;;;10.73;3.50;;;-1.80;90.60;;;;;;5044108;28;20061;-48
2021/03/05 06:25:08;;;;;;;12.50;3.70;;;-1.80;90.50;;;;;;5043867;28;20051;-51
2021/03/05 06:27:34;;;;;;;10.13;3.95;;;-1.80;90.60;;;;;;5043971;28;20068;-48
2021/03/05 06:30:03;;;;;;;11.40;3.53;;;-1.80;90.70;;;;;;5043551;28;20053;-45
2021/03/05 06:32:44;;;;;;;11.25;4.05;;;-1.80;90.60;;;;;;5044444;28;20045;-51
2021/03/05 06:35:24;;;;;;;13.10;3.10;;;-1.70;90.90;;;;;;5041838;28;20053;-45
2021/03/05 06:37:49;;;;;;;8.07;2.88;;;-1.80;90.50;;;;;;5040946;28;20048;-48
2021/03/05 06:40:16;;;;;;;8.90;3.47;;;-1.70;90.70;;;;;;5046284;28;20056;-48
2021/03/05 06:42:54;;;;;;;9.38;2.88;;;-1.70;90.60;;;;;;5045697;28;20041;-52
2021/03/05 06:45:25;;;;;;;7.32;2.70;;;-1.60;90.50;;;;;;5043967;28;20049;-46
2021/03/05 06:48:06;;;;;;;17.55;2.63;;;-1.40;91.10;;;;;;5044068;28;20063;-48
2021/03/05 06:50:34;;;;;;;11.48;2.95;;;-1.30;90.90;;;;;;5042682;28;20406;-47
2021/03/05 06:53:00;;;;;;;7.72;2.95;;;-1.30;90.60;;;;;;5040971;28;20041;-49
2021/03/05 06:55:26;;;;;;;6.40;2.83;;;-1.20;90.50;;;;;;5042718;28;20398;-47
2021/03/05 06:57:53;;;;;;;49.65;25.98;;;-1.10;90.30;;;;;;5043165;28;20041;-47
2021/03/05 07:00:23;;;;;;;20.10;7.50;;;-1.10;90.30;;;;;;5044528;28;20501;-46
2021/03/05 07:02:50;;;;;;;9.57;4.78;;;-1.10;90.10;;;;;;5035738;28;20068;-45
2021/03/05 07:05:17;;;;;;;15.93;5.05;;;-1.00;90.10;;;;;;5045011;28;20049;-46
2021/03/05 07:07:45;;;;;;;9.45;2.55;;;-1.00;90.10;;;;;;5044799;28;20056;-46
2021/03/05 07:10:15;;;;;;;12.52;3.08;;;-0.90;90.30;;;;;;5044748;28;20056;-47
2021/03/05 07:13:00;;;;;;;10.25;3.22;;;-0.90;90.00;;;;;;5044596;28;20037;-47
2021/03/05 07:15:26;;;;;;;11.00;2.47;;;-0.70;89.70;;;;;;5048115;28;20088;-48
2021/03/05 07:17:52;;;;;;;20.25;9.93;;;-0.50;89.80;;;;;;5047412;28;20045;-45
2021/03/05 07:20:18;;;;;;;9.60;3.22;;;-0.30;89.70;;;;;;5049620;28;20045;-45
2021/03/05 07:22:48;;;;;;;11.63;3.22;;;-0.20;89.50;;;;;;5027863;28;20045;-47
2021/03/05 07:25:16;;;;;;;9.25;2.88;;;0.00;88.80;;;;;;5047429;28;20048;-45
2021/03/05 07:27:45;;;;;;;10.52;3.83;;;0.20;88.80;;;;;;5047923;28;20846;-48
2021/03/05 07:30:13;;;;;;;10.75;2.88;;;0.40;88.20;;;;;;5048624;28;20052;-46
2021/03/05 07:32:40;;;;;;;7.25;2.55;;;0.70;87.60;;;;;;5048565;28;20045;-45
2021/03/05 07:35:17;;;;;;;11.60;2.08;;;1.10;86.60;;;;;;5047346;28;20045;-49
2021/03/05 07:37:49;;;;;;;8.40;2.17;;;1.50;85.70;;;;;;5048623;28;20051;-46
2021/03/05 07:40:17;;;;;;;9.95;2.05;;;1.90;86.20;;;;;;5049308;28;20408;-47
2021/03/05 07:42:43;;;;;;;5.97;2.17;;;2.30;83.90;;;;;;5047428;28;20045;-50
2021/03/05 07:45:11;;;;;;;8.23;1.85;;;2.80;82.10;;;;;;5048551;28;20460;-49
2021/03/05 07:47:40;;;;;;;18.70;9.57;;;3.20;79.70;;;;;;5048762;28;20179;-47
2021/03/05 07:50:11;;;;;;;20.25;12.80;;;3.70;80.00;;;;;;5047950;28;20060;-45
2021/03/05 07:52:38;;;;;;;8.33;3.30;;;4.20;76.00;;;;;;5046035;28;20501;-45
2021/03/05 07:55:05;;;;;;;8.00;2.22;;;4.60;76.10;;;;;;5047124;28;20045;-47
2021/03/05 07:57:33;;;;;;;6.40;2.00;;;5.10;76.00;;;;;;5044521;28;20566;-50
2021/03/05 08:00:00;;;;;;;13.82;8.02;;;5.50;73.80;;;;;;5055506;28;20416;-49
2021/03/05 08:02:56;;;;;;;13.23;5.45;;;5.90;72.80;;;;;;5049946;28;20048;-45
2021/03/05 08:05:38;;;;;;;11.32;4.65;;;6.50;62.90;;;;;;5048405;28;20063;-47
2021/03/05 08:08:29;;;;;;;8.60;3.42;;;7.00;62.60;;;;;;5044884;28;20065;-47
2021/03/05 08:11:02;;;;;;;38.42;27.30;;;7.30;57.30;;;;;;5002756;28;20108;-49
2021/03/05 08:16:29;;;;;;;18.02;11.68;;;8.30;59.70;;;;;;5002980;28;20137;-48
2021/03/05 08:19:04;;;;;;;9.13;3.38;;;8.70;53.00;;;;;;5003935;28;20058;-48
2021/03/05 08:21:48;;;;;;;9.35;4.20;;;9.10;56.30;;;;;;4999820;28;20088;-43
2021/03/05 08:24:35;;;;;;;7.53;1.83;;;9.40;51.10;;;;;;5003694;28;20050;-47
2021/03/05 08:27:35;;;;;;;3.80;1.33;;;9.70;52.80;;;;;;5008215;28;20069;-43
2021/03/05 08:30:05;;;;;;;4.88;1.70;;;9.90;48.20;;;;;;4983256;28;20054;-47
2021/03/05 08:32:38;;;;;;;9.82;2.47;;;10.10;55.10;;;;;;4967748;28;20137;-44
2021/03/05 08:35:08;;;;;;;6.03;1.25;;;10.00;53.20;;;;;;4985154;28;20600;-48
2021/03/05 08:37:59;;;;;;;9.63;3.53;;;10.20;53.10;;;;;;4984672;28;20054;-51
2021/03/05 08:40:27;;;;;;;21.88;16.10;;;10.20;51.30;;;;;;4982636;28;20050;-51
2021/03/05 08:43:19;;;;;;;7.22;3.63;;;10.50;51.40;;;;;;4981125;28;20062;-50
2021/03/05 08:46:09;;;;;;;18.08;11.77;;;10.70;48.90;;;;;;4983979;28;20056;-54
2021/03/05 08:48:46;;;;;;;3.97;1.00;;;10.90;42.80;;;;;;4946851;28;20137;-49
2021/03/05 08:51:17;;;;;;;17.05;10.25;;;11.10;44.50;;;;;;4945989;28;20051;-51
2021/03/05 08:53:52;;;;;;;;;;;11.50;45.80;;;;;;4945321;29;20055;-50
2021/03/05 08:56:17;;;;;;;10.52;6.10;;;11.50;41.50;;;;;;4952346;28;20721;-52
2021/03/05 09:02:29;;;;;;;7.05;2.95;;;12.10;42.50;;;;;;4959697;28;20066;-54
2021/03/05 09:04:55;;;;;;;24.52;19.13;;;12.20;45.50;;;;;;4944528;28;20173;-46
2021/03/05 09:07:20;;;;;;;24.63;18.48;;;12.50;44.40;;;;;;4982741;28;20136;-51
2021/03/05 09:09:53;;;;;;;16.17;11.70;;;12.50;43.50;;;;;;5008488;28;20420;-54
2021/03/05 09:12:22;;;;;;;15.40;10.88;;;12.40;41.10;;;;;;5009072;28;20053;-53
2021/03/05 09:15:02;;;;;;;5.50;1.77;;;12.80;42.60;;;;;;5002469;28;20080;-50
2021/03/05 09:17:28;;;;;;;6.88;3.80;;;12.90;40.90;;;;;;5003152;28;20050;-49
2021/03/05 09:19:54;;;;;;;12.10;5.45;;;13.00;41.60;;;;;;5002418;28;20050;-53
2021/03/05 09:22:24;;;;;;;5.53;1.80;;;13.10;40.60;;;;;;5003071;28;20041;-48
2021/03/05 09:24:57;;;;;;;2.75;1.05;;;13.10;40.60;;;;;;5010652;28;20147;-51
2021/03/05 09:27:31;;;;;;;5.82;3.30;;;13.30;40.20;;;;;;5055034;28;20125;-45
2021/03/05 09:30:00;;;;;;;5.20;2.38;;;13.50;41.00;;;;;;5045835;28;20691;-49
2021/03/05 09:32:26;;;;;;;7.55;4.32;;;13.20;38.10;;;;;;5053665;28;20051;-50
2021/03/05 09:34:58;;;;;;;5.90;2.70;;;13.30;38.10;;;;;;5051875;28;20060;-45
2021/03/05 09:37:30;;;;;;;5.85;1.02;;;13.70;37.70;;;;;;5041987;28;20088;-45
2021/03/05 09:40:02;;;;;;;7.63;3.75;;;13.90;37.50;;;;;;5048482;28;20052;-49
2021/03/05 09:43:17;;;;;;;50.55;45.30;;;13.90;39.80;;;;;;5030908;28;20799;-47
2021/03/05 09:45:49;;;;;;;21.98;15.85;;;14.30;36.90;;;;;;5029617;28;20049;-46
2021/03/05 10:10:25;;;;;;;2.95;0.95;;;14.80;34.50;;;;;;5026266;28;20036;-45
2021/03/05 10:12:55;;;;;;;5.78;1.20;;;14.70;33.60;;;;;;5037040;28;20063;-50
2021/03/05 10:15:21;;;;;;;2.58;1.05;;;15.10;34.60;;;;;;5056788;28;20836;-47
2021/03/05 10:17:47;;;;;;;3.17;0.90;;;15.00;33.60;;;;;;5062201;28;20060;-48
2021/03/05 10:20:20;;;;;;;4.75;1.70;;;15.00;33.90;;;;;;5064867;28;20052;-45
2021/03/05 10:22:56;;;;;;;10.50;7.32;;;15.20;34.10;;;;;;5073490;28;20059;-47
2021/03/05 10:25:22;;;;;;;6.78;4.25;;;15.40;34.40;;;;;;5064796;28;20985;-46
2021/03/05 10:27:48;;;;;;;10.43;7.88;;;15.40;33.80;;;;;;5061150;28;20056;-49
2021/03/05 10:30:15;;;;;;;15.30;11.05;;;15.30;33.50;;;;;;5064239;28;20051;-47
2021/03/05 10:32:48;;;;;;;8.95;5.50;;;15.30;33.30;;;;;;5063979;28;20095;-44
2021/03/05 10:35:18;;;;;;;10.63;7.28;;;14.80;32.60;;;;;;5064651;28;20048;-49
2021/03/05 10:37:44;;;;;;;4.28;1.92;;;15.30;34.50;;;;;;5065221;28;20044;-48
2021/03/05 10:40:16;;;;;;;2.85;1.45;;;15.30;32.80;;;;;;5062665;28;20048;-46
2021/03/05 10:42:42;;;;;;;3.85;1.25;;;15.70;32.40;;;;;;5061118;28;20041;-44
2021/03/05 10:45:12;;;;;;;7.35;3.40;;;14.80;31.90;;;;;;5063121;28;20106;-45
2021/03/05 10:47:38;;;;;;;14.10;10.93;;;13.60;34.20;;;;;;5064756;28;20044;-46
2021/03/05 10:50:07;;;;;;;7.38;3.42;;;13.30;35.90;;;;;;5068657;28;20480;-48
2021/03/05 10:52:35;;;;;;;4.43;2.10;;;14.10;36.10;;;;;;5067900;28;20062;-47
2021/03/05 10:55:01;;;;;;;14.05;10.05;;;15.10;33.90;;;;;;5050126;28;20079;-46
2021/03/05 10:57:34;;;;;;;5.97;4.20;;;14.80;33.40;;;;;;5064742;28;20449;-41
2021/03/05 11:00:02;;;;;;;18.70;14.68;;;13.80;34.20;;;;;;5066008;28;20105;-46
2021/03/05 11:02:28;;;;;;;9.38;3.60;;;14.50;35.30;;;;;;5056901;28;20500;-46
2021/03/05 11:04:54;;;;;;;2.40;0.80;;;14.70;35.20;;;;;;5048990;28;20077;-50
2021/03/05 11:07:24;;;;;;;4.68;1.45;;;14.00;34.70;;;;;;5064568;28;20149;-44
2021/03/05 11:09:49;;;;;;;3.13;1.38;;;12.10;34.70;;;;;;5066920;28;20056;-48
2021/03/05 11:12:22;;;;;;;4.88;2.55;;;11.60;37.30;;;;;;5067736;28;20055;-47
2021/03/05 11:14:53;;;;;;;4.80;0.90;;;11.00;38.40;;;;;;5067700;28;20067;-47
2021/03/05 11:17:21;;;;;;;3.38;1.48;;;11.00;39.50;;;;;;5065898;28;20048;-49
2021/03/05 11:19:47;;;;;;;1.65;0.70;;;10.60;39.50;;;;;;5047399;28;20044;-47
2021/03/05 11:22:14;;;;;;;2.85;0.70;;;10.50;39.90;;;;;;5066819;28;20048;-48
2021/03/05 11:24:39;;;;;;;3.60;1.20;;;10.10;40.80;;;;;;5066924;28;20052;-42
2021/03/05 11:27:06;;;;;;;4.72;0.95;;;9.80;41.20;;;;;;5066261;28;20110;-48
2021/03/05 11:29:37;;;;;;;5.20;1.70;;;10.90;40.70;;;;;;5065795;28;20051;-46
2021/03/05 11:32:08;;;;;;;5.13;1.17;;;12.30;39.10;;;;;;5044825;28;20233;-46
2021/03/05 11:34:35;;;;;;;4.10;1.00;;;13.90;36.30;;;;;;5056502;28;20163;-46
2021/03/05 11:37:01;;;;;;;47.50;38.30;;;14.50;35.80;;;;;;5058277;28;20044;-45
2021/03/05 11:39:30;;;;;;;9.07;5.50;;;14.60;34.40;;;;;;5049857;28;20052;-43
2021/03/05 11:41:58;;;;;;;7.95;4.85;;;13.70;34.70;;;;;;5050300;28;20930;-44
2021/03/05 11:44:27;;;;;;;2.97;1.45;;;12.40;36.20;;;;;;5060657;28;20484;-48
2021/03/05 11:46:53;;;;;;;10.90;7.05;;;11.60;37.30;;;;;;5061160;28;20048;-43
2021/03/05 11:49:19;;;;;;;16.58;10.52;;;11.30;39.80;;;;;;5021818;28;20103;-43
2021/03/05 11:51:48;;;;;;;6.40;3.47;;;10.90;39.70;;;;;;5046095;28;20542;-44
2021/03/05 11:54:14;;;;;;;6.85;2.15;;;10.80;40.40;;;;;;5059167;28;20083;-47
2021/03/05 11:56:42;;;;;;;4.82;1.23;;;11.70;40.40;;;;;;5031459;28;20226;-44
2021/03/05 11:59:10;;;;;;;6.80;3.33;;;12.40;37.00;;;;;;5056225;28;20488;-47
2021/03/05 12:01:36;;;;;;;5.05;1.85;;;12.80;36.80;;;;;;5059445;28;20105;-46
2021/03/05 12:04:04;;;;;;;8.45;3.58;;;12.90;36.50;;;;;;5057731;28;20132;-45
2021/03/05 12:06:37;;;;;;;4.65;1.13;;;12.20;37.10;;;;;;5059600;28;20056;-45
2021/03/05 12:09:10;;;;;;;5.07;1.23;;;12.20;37.90;;;;;;5055867;28;20079;-43
2021/03/05 12:11:39;;;;;;;2.83;0.80;;;11.90;38.00;;;;;;5040373;28;20146;-47
2021/03/05 12:14:05;;;;;;;2.95;1.23;;;12.40;37.80;;;;;;5049720;28;20056;-47
2021/03/05 12:16:35;;;;;;;4.40;1.67;;;13.70;37.30;;;;;;5059116;28;20049;-47
2021/03/05 12:19:01;;;;;;;4.28;1.55;;;14.60;35.60;;;;;;5058510;28;20730;-44
2021/03/05 12:21:27;;;;;;;4.40;1.20;;;15.70;34.60;;;;;;5061072;28;20048;-49
2021/03/05 12:23:57;;;;;;;2.80;0.90;;;16.30;31.20;;;;;;5061303;28;20063;-49
2021/03/05 12:26:46;;;;;;;2.78;1.58;;;16.40;30.40;;;;;;5030980;28;21116;-45
2021/03/05 12:29:34;;;;;;;3.92;0.77;;;16.80;30.60;;;;;;5033443;28;20044;-45
2021/03/05 12:32:20;;;;;;;4.32;1.30;;;17.30;29.80;;;;;;5043224;28;20087;-44
2021/03/05 12:35:08;;;;;;;4.28;1.13;;;17.40;29.10;;;;;;5050317;28;20059;-45
2021/03/05 12:37:57;;;;;;;5.57;1.75;;;16.50;29.20;;;;;;5045484;28;20649;-45
2021/03/05 12:40:28;;;;;;;7.57;2.40;;;15.80;30.70;;;;;;5062577;28;20064;-43
2021/03/05 12:42:57;;;;;;;6.43;1.90;;;14.90;30.40;;;;;;5055172;28;20056;-46
2021/03/05 12:45:29;;;;;;;4.78;1.17;;;15.50;32.50;;;;;;5056750;28;20047;-44
2021/03/05 12:48:01;;;;;;;4.00;1.40;;;15.60;31.50;;;;;;5065322;28;20201;-49
2021/03/05 12:50:33;;;;;;;5.82;1.70;;;14.80;30.40;;;;;;5058486;28;20049;-45
2021/03/05 12:53:05;;;;;;;6.78;1.83;;;14.20;32.60;;;;;;5058825;28;20616;-44
2021/03/05 12:55:31;;;;;;;;;;;14.20;33.00;;;;;;5059579;28;20401;-43
2021/03/05 12:58:05;;;;;;;5.78;1.17;;;14.10;33.10;;;;;;5046902;28;19973;-47
2021/03/05 13:00:33;;;;;;;4.72;1.58;;;14.00;32.70;;;;;;5043351;28;20054;-45
2021/03/05 13:02:59;;;;;;;4.32;1.00;;;13.50;33.60;;;;;;5058029;28;20059;-45
2021/03/05 13:05:28;;;;;;;3.28;0.80;;;13.40;33.90;;;;;;5058931;28;20048;-44
2021/03/05 13:07:54;;;;;;;4.80;1.50;;;14.20;32.80;;;;;;5050933;28;20075;-46
2021/03/05 13:10:21;;;;;;;8.77;1.83;;;15.20;32.70;;;;;;5057662;28;20445;-44
2021/03/05 13:12:47;;;;;;;5.13;1.65;;;15.40;30.10;;;;;;5059137;28;20052;-45
2021/03/05 13:15:14;;;;;;;5.47;1.40;;;15.70;29.70;;;;;;5034564;28;20047;-45
2021/03/05 13:17:40;;;;;;;7.40;3.15;;;16.40;29.90;;;;;;5056419;28;20377;-45
2021/03/05 13:20:08;;;;;;;34.25;26.55;;;16.40;29.30;;;;;;5058605;28;20080;-44
2021/03/05 13:22:33;;;;;;;6.95;2.90;;;16.60;29.40;;;;;;5064423;28;20053;-44
2021/03/05 13:25:05;;;;;;;2.75;0.90;;;16.20;29.20;;;;;;5064866;28;20048;-46